Time;durP1;ratioP1;P1;durP2;ratioP2;P2;SDS_P1;SDS_P2;PMS_P1;PMS_P2;Temp;Humidity;BMP_temperature;BMP_pressure;BME280_temperature;BME280_humidity;BME280_pressure;Samples;Min_cycle;Max_cycle;Signal;HPM_P1;HPM_P2
2023/10/24 00:02:11;;;;;;;;;;;;;;;;;;5014454;28;20073;-77
2023/10/24 00:04:37;;;;;;;;;;;;;;;;;;5014414;28;19987;-74
2023/10/24 00:07:03;;;;;;;;;;;;;;;;;;5014364;28;19986;-73
2023/10/24 00:09:29;;;;;;;;;;;;;;;;;;4996576;28;20001;-73
2023/10/24 00:11:55;;;;;;;;;;;;;;;;;;5013677;28;20033;-74
2023/10/24 00:14:21;;;;;;;;;;;;;;;;;;5014222;28;19990;-74
2023/10/24 00:16:47;;;;;;;;;;;;;;;;;;5014103;28;20041;-73
2023/10/24 00:19:13;;;;;;;;;;;;;;;;;;4996653;28;20086;-74
2023/10/24 00:21:39;;;;;;;;;;;;;;;;;;5013968;28;20450;-75
2023/10/24 00:24:04;;;;;;;;;;;;;;;;;;5013984;28;19997;-73
2023/10/24 00:26:30;;;;;;;;;;;;;;;;;;5014173;28;19991;-73
2023/10/24 00:28:56;;;;;;;;;;;;;;;;;;5013319;28;20085;-73
2023/10/24 00:31:22;;;;;;;;;;;;;;;;;;5014086;28;19990;-74
2023/10/24 00:33:48;;;;;;;;;;;;;;;;;;5013533;28;20530;-73
2023/10/24 00:36:14;;;;;;;;;;;;;;;;;;5013778;28;20010;-73
2023/10/24 00:38:40;;;;;;;;;;;;;;;;;;5013853;28;20013;-74
2023/10/24 00:41:06;;;;;;;;;;;;;;;;;;5013586;28;19990;-74
2023/10/24 00:43:32;;;;;;;;;;;;;;;;;;5013716;28;19998;-73
2023/10/24 00:45:58;;;;;;;;;;;;;;;;;;5012686;28;19994;-73
2023/10/24 00:48:24;;;;;;;;;;;;;;;;;;5013654;28;20044;-73
2023/10/24 00:50:50;;;;;;;;;;;;;;;;;;5013526;28;20068;-74
2023/10/24 00:53:17;;;;;;;;;;;;;;;;;;5013490;28;20069;-73
2023/10/24 00:55:43;;;;;;;;;;;;;;;;;;5013536;28;19997;-74
2023/10/24 00:58:09;;;;;;;;;;;;;;;;;;5013433;28;19990;-73
2023/10/24 01:00:35;;;;;;;;;;;;;;;;;;5013507;28;20001;-74
2023/10/24 01:03:01;;;;;;;;;;;;;;;;;;5012437;28;20125;-75
2023/10/24 01:05:27;;;;;;;;;;;;;;;;;;5013233;28;19990;-74
2023/10/24 01:07:53;;;;;;;;;;;;;;;;;;5013442;28;20002;-74
2023/10/24 01:10:19;;;;;;;;;;;;;;;;;;5013467;28;20447;-73
2023/10/24 01:12:45;;;;;;;;;;;;;;;;;;5013417;28;20017;-73
2023/10/24 01:15:11;;;;;;;;;;;;;;;;;;5013367;28;19997;-73
2023/10/24 01:17:37;;;;;;;;;;;;;;;;;;5012258;28;20105;-74
2023/10/24 01:20:03;;;;;;;;;;;;;;;;;;5013232;28;20446;-74
2023/10/24 01:22:29;;;;;;;;;;;;;;;;;;5013018;28;20048;-73
2023/10/24 01:24:55;;;;;;;;;;;;;;;;;;5013240;28;20085;-74
2023/10/24 01:27:21;;;;;;;;;;;;;;;;;;5012142;28;20006;-74
2023/10/24 01:29:47;;;;;;;;;;;;;;;;;;5012810;28;20009;-74
2023/10/24 01:32:13;;;;;;;;;;;;;;;;;;5012235;28;20032;-74
2023/10/24 01:34:39;;;;;;;;;;;;;;;;;;5012077;28;19994;-73
2023/10/24 01:37:05;;;;;;;;;;;;;;;;;;5012943;28;20098;-74
2023/10/24 01:39:31;;;;;;;;;;;;;;;;;;5012762;28;20144;-74
2023/10/24 01:41:57;;;;;;;;;;;;;;;;;;5012713;28;19997;-73
2023/10/24 01:44:23;;;;;;;;;;;;;;;;;;5012740;28;19986;-74
2023/10/24 01:46:49;;;;;;;;;;;;;;;;;;5012413;28;20085;-74
2023/10/24 01:49:15;;;;;;;;;;;;;;;;;;5012420;28;20335;-73
2023/10/24 01:51:41;;;;;;;;;;;;;;;;;;5011599;28;19998;-73
2023/10/24 01:54:07;;;;;;;;;;;;;;;;;;5012326;28;19993;-72
2023/10/24 01:56:33;;;;;;;;;;;;;;;;;;5012557;28;19994;-74
2023/10/24 01:58:59;;;;;;;;;;;;;;;;;;5012321;28;20438;-73
2023/10/24 02:01:25;;;;;;;;;;;;;;;;;;5012379;28;19991;-74
2023/10/24 02:03:51;;;;;;;;;;;;;;;;;;5012015;28;19994;-73
2023/10/24 02:06:17;;;;;;;;;;;;;;;;;;5011613;28;20145;-74
2023/10/24 02:08:43;;;;;;;;;;;;;;;;;;5012193;28;20008;-74
2023/10/24 02:11:09;;;;;;;;;;;;;;;;;;5012196;28;20460;-73
2023/10/24 02:13:35;;;;;;;;;;;;;;;;;;5011960;28;20018;-72
2023/10/24 02:16:01;;;;;;;;;;;;;;;;;;5011915;28;20001;-73
2023/10/24 02:18:27;;;;;;;;;;;;;;;;;;5012054;28;19993;-74
2023/10/24 02:20:53;;;;;;;;;;;;;;;;;;5011294;28;20064;-73
2023/10/24 02:23:19;;;;;;;;;;;;;;;;;;5012022;28;19996;-73
2023/10/24 02:25:45;;;;;;;;;;;;;;;;;;4994380;28;20076;-74
2023/10/24 02:28:11;;;;;;;;;;;;;;;;;;5011768;28;20417;-74
2023/10/24 02:30:37;;;;;;;;;;;;;;;;;;5011746;28;19986;-73
2023/10/24 02:33:03;;;;;;;;;;;;;;;;;;5011488;28;20022;-73
2023/10/24 02:35:29;;;;;;;;;;;;;;;;;;5011857;28;19987;-74
2023/10/24 02:37:55;;;;;;;;;;;;;;;;;;5010890;28;19997;-73
2023/10/24 02:40:21;;;;;;;;;;;;;;;;;;5011849;28;19994;-74
2023/10/24 02:42:47;;;;;;;;;;;;;;;;;;5011755;28;19997;-73
2023/10/24 02:45:13;;;;;;;;;;;;;;;;;;5011670;28;19987;-74
2023/10/24 02:47:39;;;;;;;;;;;;;;;;;;5011753;28;19986;-72
2023/10/24 02:50:05;;;;;;;;;;;;;;;;;;5011874;28;20049;-73
2023/10/24 02:52:31;;;;;;;;;;;;;;;;;;5011641;28;20070;-74
2023/10/24 02:54:57;;;;;;;;;;;;;;;;;;5010775;28;19990;-73
2023/10/24 02:57:22;;;;;;;;;;;;;;;;;;5011723;28;20056;-73
2023/10/24 02:59:48;;;;;;;;;;;;;;;;;;5011635;28;20028;-73
2023/10/24 03:02:14;;;;;;;;;;;;;;;;;;5011232;28;19994;-73
2023/10/24 03:04:40;;;;;;;;;;;;;;;;;;5011737;28;20374;-73
2023/10/24 03:07:06;;;;;;;;;;;;;;;;;;5011310;28;20017;-74
2023/10/24 03:09:32;;;;;;;;;;;;;;;;;;5011357;28;19990;-72
2023/10/24 03:11:58;;;;;;;;;;;;;;;;;;5010555;28;19990;-73
2023/10/24 03:14:24;;;;;;;;;;;;;;;;;;5011402;28;20002;-73
2023/10/24 03:16:50;;;;;;;;;;;;;;;;;;5011084;28;19994;-73
2023/10/24 03:19:16;;;;;;;;;;;;;;;;;;5011463;28;19990;-73
2023/10/24 03:21:42;;;;;;;;;;;;;;;;;;5011320;28;19991;-73
2023/10/24 03:24:08;;;;;;;;;;;;;;;;;;5011389;28;19987;-72
2023/10/24 03:26:34;;;;;;;;;;;;;;;;;;5011337;28;19997;-73
2023/10/24 03:29:00;;;;;;;;;;;;;;;;;;5010706;28;19997;-71
2023/10/24 03:31:25;;;;;;;;;;;;;;;;;;5011257;28;20060;-69
2023/10/24 03:33:51;;;;;;;;;;;;;;;;;;5010854;28;20084;-70
2023/10/24 03:36:17;;;;;;;;;;;;;;;;;;5011489;28;19987;-70
2023/10/24 03:38:43;;;;;;;;;;;;;;;;;;5011291;28;19993;-70
2023/10/24 03:41:09;;;;;;;;;;;;;;;;;;5011194;28;20072;-70
2023/10/24 03:43:35;;;;;;;;;;;;;;;;;;5011104;28;20046;-70
2023/10/24 03:46:01;;;;;;;;;;;;;;;;;;5010156;28;20038;-70
2023/10/24 03:48:27;;;;;;;;;;;;;;;;;;5011122;28;19994;-70
2023/10/24 03:50:53;;;;;;;;;;;;;;;;;;5013098;28;20029;-70
2023/10/24 03:53:19;;;;;;;;;;;;;;;;;;5014615;28;20025;-70
2023/10/24 03:55:45;;;;;;;;;;;;;;;;;;5014751;28;20037;-69
2023/10/24 03:58:11;;;;;;;;;;;;;;;;;;5014513;28;20067;-69
2023/10/24 04:00:37;;;;;;;;;;;;;;;;;;5014866;28;20030;-69
2023/10/24 04:03:03;;;;;;;;;;;;;;;;;;5013643;28;20010;-70
2023/10/24 04:05:29;;;;;;;;;;;;;;;;;;5014557;28;19986;-70
2023/10/24 04:07:55;;;;;;;;;;;;;;;;;;5014345;28;19996;-70
2023/10/24 04:10:21;;;;;;;;;;;;;;;;;;5014255;28;20005;-70
2023/10/24 04:12:47;;;;;;;;;;;;;;;;;;5014050;28;20010;-70
2023/10/24 04:15:13;;;;;;;;;;;;;;;;;;5014091;28;20049;-72
2023/10/24 04:17:39;;;;;;;;;;;;;;;;;;5014038;28;19992;-70
2023/10/24 04:20:06;;;;;;;;;;;;;;;;;;5013350;28;20470;-70
2023/10/24 04:22:32;;;;;;;;;;;;;;;;;;5013910;28;19990;-70
2023/10/24 04:24:58;;;;;;;;;;;;;;;;;;5013934;28;19987;-70
2023/10/24 04:27:24;;;;;;;;;;;;;;;;;;5014029;28;19991;-69
2023/10/24 04:29:50;;;;;;;;;;;;;;;;;;4996466;28;19994;-69
2023/10/24 04:32:16;;;;;;;;;;;;;;;;;;5013654;28;20023;-69
2023/10/24 04:34:42;;;;;;;;;;;;;;;;;;5012893;28;20010;-70
2023/10/24 04:37:08;;;;;;;;;;;;;;;;;;5013679;28;20028;-70
2023/10/24 04:39:34;;;;;;;;;;;;;;;;;;5013857;28;19993;-70
2023/10/24 04:42:00;;;;;;;;;;;;;;;;;;5013616;28;19991;-69
2023/10/24 04:44:26;;;;;;;;;;;;;;;;;;5013668;28;19997;-69
2023/10/24 04:46:52;;;;;;;;;;;;;;;;;;4995954;28;19994;-70
2023/10/24 04:49:18;;;;;;;;;;;;;;;;;;5013794;28;20044;-70
2023/10/24 04:51:44;;;;;;;;;;;;;;;;;;5012845;28;20490;-71
2023/10/24 04:54:10;;;;;;;;;;;;;;;;;;5013605;28;20113;-71
2023/10/24 04:56:36;;;;;;;;;;;;;;;;;;5013436;28;20021;-70
2023/10/24 04:59:02;;;;;;;;;;;;;;;;;;5012544;28;20002;-70
2023/10/24 05:01:28;;;;;;;;;;;;;;;;;;5012497;28;19986;-70
2023/10/24 05:03:54;;;;;;;;;;;;;;;;;;5013390;28;20009;-70
2023/10/24 05:06:20;;;;;;;;;;;;;;;;;;5013383;28;20474;-70
2023/10/24 05:08:48;;;;;;;;;;;;;;;;;;5013440;28;20009;-70
2023/10/24 05:11:14;;;;;;;;;;;;;;;;;;5012896;28;19987;-71
2023/10/24 05:13:40;;;;;;;;;;;;;;;;;;5012572;28;20014;-70
2023/10/24 05:16:06;;;;;;;;;;;;;;;;;;5013267;28;20030;-71
2023/10/24 05:18:31;;;;;;;;;;;;;;;;;;5013194;28;19994;-71
2023/10/24 05:20:57;;;;;;;;;;;;;;;;;;5013086;28;19991;-71
2023/10/24 05:23:23;;;;;;;;;;;;;;;;;;5012874;28;19990;-70
2023/10/24 05:25:49;;;;;;;;;;;;;;;;;;5013022;28;19997;-72
2023/10/24 05:28:15;;;;;;;;;;;;;;;;;;5012960;28;19994;-71
2023/10/24 05:30:41;;;;;;;;;;;;;;;;;;5011912;28;19995;-72
2023/10/24 05:33:07;;;;;;;;;;;;;;;;;;5012683;28;20033;-71
2023/10/24 05:35:34;;;;;;;;;;;;;;;;;;5012641;28;19986;-72
2023/10/24 05:38:00;;;;;;;;;;;;;;;;;;5012810;28;19994;-72
2023/10/24 05:40:27;;;;;;;;;;;;;;;;;;5012697;28;19987;-72
2023/10/24 05:42:52;;;;;;;;;;;;;;;;;;5012507;28;20014;-71
2023/10/24 05:45:21;;;;;;;;;;;;;;;;;;5011853;28;20518;-71
2023/10/24 05:47:47;;;;;;;;;;;;;;;;;;5012712;28;19990;-72
2023/10/24 05:50:13;;;;;;;;;;;;;;;;;;5012467;28;19997;-72
2023/10/24 05:52:39;;;;;;;;;;;;;;;;;;5012641;28;20010;-72
2023/10/24 05:55:05;;;;;;;;;;;;;;;;;;5012368;28;19990;-71
2023/10/24 05:57:31;;;;;;;;;;;;;;;;;;5012472;28;20104;-72
2023/10/24 05:59:57;;;;;;;;;;;;;;;;;;5012545;28;19997;-72
2023/10/24 06:02:23;;;;;;;;;;;;;;;;;;5012626;28;19991;-70
2023/10/24 06:04:49;;;;;;;;;;;;;;;;;;5011585;28;20017;-73
2023/10/24 06:07:15;;;;;;;;;;;;;;;;;;5012190;28;19992;-74
2023/10/24 06:09:41;;;;;;;;;;;;;;;;;;5012086;28;20054;-73
2023/10/24 06:12:10;;;;;;;;;;;;;;;;;;5012111;28;19994;-73
2023/10/24 06:14:37;;;;;;;;;;;;;;;;;;5011868;28;19998;-72
2023/10/24 06:17:03;;;;;;;;;;;;;;;;;;5012115;28;19990;-73
2023/10/24 06:19:29;;;;;;;;;;;;;;;;;;5012307;28;19991;-73
2023/10/24 06:21:55;;;;;;;;;;;;;;;;;;5006585;28;20051;-73
2023/10/24 06:24:21;;;;;;;;;;;;;;;;;;5009050;28;20029;-72
2023/10/24 06:26:47;;;;;;;;;;;;;;;;;;5011880;28;19986;-72
2023/10/24 06:29:12;;;;;;;;;;;;;;;;;;5011665;28;20038;-71
2023/10/24 06:31:38;;;;;;;;;;;;;;;;;;5011477;28;20001;-72
2023/10/24 06:34:06;;;;;;;;;;;;;;;;;;5011286;28;20021;-71
2023/10/24 06:36:34;;;;;;;;;;;;;;;;;;5011678;28;20288;-72
2023/10/24 06:39:00;;;;;;;;;;;;;;;;;;5010932;28;19998;-72
2023/10/24 06:41:26;;;;;;;;;;;;;;;;;;5011344;28;20081;-71
2023/10/24 06:43:52;;;;;;;;;;;;;;;;;;5011611;28;20013;-71
2023/10/24 06:46:18;;;;;;;;;;;;;;;;;;5011472;28;20158;-72
2023/10/24 06:48:44;;;;;;;;;;;;;;;;;;5011660;28;19997;-72
2023/10/24 06:51:10;;;;;;;;;;;;;;;;;;5011452;28;20088;-71
2023/10/24 06:53:36;;;;;;;;;;;;;;;;;;4996508;28;20025;-72
2023/10/24 06:56:02;;;;;;;;;;;;;;;;;;5011555;28;19991;-71
2023/10/24 06:58:28;;;;;;;;;;;;;;;;;;5011287;28;20438;-70
2023/10/24 07:00:54;;;;;;;;;;;;;;;;;;5010795;28;20045;-71
2023/10/24 07:03:20;;;;;;;;;;;;;;;;;;5011745;28;19991;-71
2023/10/24 07:05:46;;;;;;;;;;;;;;;;;;5011376;28;20084;-71
2023/10/24 07:08:12;;;;;;;;;;;;;;;;;;5011659;28;20036;-72
2023/10/24 07:10:38;;;;;;;;;;;;;;;;;;5011489;28;20363;-71
2023/10/24 07:13:04;;;;;;;;;;;;;;;;;;5007946;28;20014;-70
2023/10/24 07:15:30;;;;;;;;;;;;;;;;;;5011285;28;19990;-70
2023/10/24 07:17:56;;;;;;;;;;;;;;;;;;5011328;28;20056;-70
2023/10/24 07:20:22;;;;;;;;;;;;;;;;;;5011606;28;20064;-69
2023/10/24 07:22:48;;;;;;;;;;;;;;;;;;5011636;28;20041;-72
2023/10/24 07:25:14;;;;;;;;;;;;;;;;;;5012290;28;19993;-70
2023/10/24 07:27:40;;;;;;;;;;;;;;;;;;5015125;28;20377;-71
2023/10/24 07:30:09;;;;;;;;;;;;;;;;;;5014201;28;19998;-71
2023/10/24 07:32:34;;;;;;;;;;;;;;;;;;4998880;28;20042;-71
2023/10/24 07:35:00;;;;;;;;;;;;;;;;;;4995257;28;20443;-72
2023/10/24 07:37:28;;;;;;;;;;;;;;;;;;4995671;28;19994;-70
2023/10/24 07:39:54;;;;;;;;;;;;;;;;;;4995382;28;20008;-71
2023/10/24 07:42:20;;;;;;;;;;;;;;;;;;4995259;28;20463;-70
2023/10/24 07:44:46;;;;;;;;;;;;;;;;;;4994102;28;20042;-73
2023/10/24 07:47:12;;;;;;;;;;;;;;;;;;4994025;28;20077;-69
2023/10/24 07:49:38;;;;;;;;;;;;;;;;;;4993288;28;20521;-70
2023/10/24 07:52:04;;;;;;;;;;;;;;;;;;4992917;28;19991;-67
2023/10/24 07:54:30;;;;;;;;;;;;;;;;;;4994994;28;19997;-71
2023/10/24 07:56:56;;;;;;;;;;;;;;;;;;4994928;28;20465;-71
2023/10/24 07:59:22;;;;;;;;;;;;;;;;;;4995102;28;20022;-71
2023/10/24 08:01:48;;;;;;;;;;;;;;;;;;4992689;28;20029;-71
2023/10/24 08:04:14;;;;;;;;;;;;;;;;;;4994817;28;19987;-72
2023/10/24 08:06:40;;;;;;;;;;;;;;;;;;4995124;28;20002;-72
2023/10/24 08:09:06;;;;;;;;;;;;;;;;;;4991255;28;19995;-72
2023/10/24 08:11:32;;;;;;;;;;;;;;;;;;4992147;28;20001;-71
2023/10/24 08:13:58;;;;;;;;;;;;;;;;;;4994500;28;20014;-72
2023/10/24 08:16:24;;;;;;;;;;;;;;;;;;4993627;28;19997;-73
2023/10/24 08:18:50;;;;;;;;;;;;;;;;;;4994436;28;19997;-73
2023/10/24 08:21:16;;;;;;;;;;;;;;;;;;4993802;28;19995;-72
2023/10/24 08:23:42;;;;;;;;;;;;;;;;;;4992822;28;19990;-74
2023/10/24 08:26:08;;;;;;;;;;;;;;;;;;4990301;28;19994;-72
2023/10/24 08:28:34;;;;;;;;;;;;;;;;;;4993601;28;19994;-73
2023/10/24 08:31:00;;;;;;;;;;;;;;;;;;4994422;28;19986;-73
2023/10/24 08:33:26;;;;;;;;;;;;;;;;;;5011332;28;20038;-71
2023/10/24 08:35:52;;;;;;;;;;;;;;;;;;5012417;28;20001;-70
2023/10/24 08:38:18;;;;;;;;;;;;;;;;;;5013935;28;20041;-76
2023/10/24 08:40:45;;;;;;;;;;;;;;;;;;5013957;28;19991;-72
2023/10/24 08:43:11;;;;;;;;;;;;;;;;;;5013728;28;20009;-74
2023/10/24 08:45:37;;;;;;;;;;;;;;;;;;5013619;28;20085;-73
2023/10/24 08:48:03;;;;;;;;;;;;;;;;;;5013603;28;20456;-72
2023/10/24 08:50:28;;;;;;;;;;;;;;;;;;5013356;28;20037;-74
2023/10/24 08:52:54;;;;;;;;;;;;;;;;;;5012780;28;20076;-71
2023/10/24 08:55:20;;;;;;;;;;;;;;;;;;5013537;28;19986;-71
2023/10/24 08:57:46;;;;;;;;;;;;;;;;;;5013133;28;19993;-68
2023/10/24 09:00:12;;;;;;;;;;;;;;;;;;5013627;28;19990;-68
2023/10/24 09:02:41;;;;;;;;;;;;;;;;;;5013309;28;20009;-66
2023/10/24 09:05:07;;;;;;;;;;;;;;;;;;5013207;28;19990;-67
2023/10/24 09:07:33;;;;;;;;;;;;;;;;;;4995690;28;20006;-68
2023/10/24 09:10:00;;;;;;;;;;;;;;;;;;5012278;28;19994;-68
2023/10/24 09:12:26;;;;;;;;;;;;;;;;;;5021980;28;20010;-67
2023/10/24 09:14:52;;;;;;;;;;;;;;;;;;5032855;28;19986;-72
2023/10/24 09:17:19;;;;;;;;;;;;;;;;;;5005186;28;20457;-71
2023/10/24 09:19:45;;;;;;;;;;;;;;;;;;5012752;28;19991;-67
2023/10/24 09:22:11;;;;;;;;;;;;;;;;;;5012840;28;19993;-66
2023/10/24 09:24:36;;;;;;;;;;;;;;;;;;5016859;28;20016;-68
2023/10/24 09:27:02;;;;;;;;;;;;;;;;;;5013154;28;20069;-70
2023/10/24 09:29:28;;;;;;;;;;;;;;;;;;5012771;28;20041;-72
2023/10/24 09:31:54;;;;;;;;;;;;;;;;;;5012199;28;20017;-70
2023/10/24 09:34:20;;;;;;;;;;;;;;;;;;5011780;28;20018;-70
2023/10/24 09:36:46;;;;;;;;;;;;;;;;;;5012877;28;19987;-67
2023/10/24 09:39:12;;;;;;;;;;;;;;;;;;4995215;28;19990;-70
2023/10/24 09:41:38;;;;;;;;;;;;;;;;;;5012791;28;20025;-70
2023/10/24 09:44:04;;;;;;;;;;;;;;;;;;5010853;28;20002;-69
2023/10/24 09:46:30;;;;;;;;;;;;;;;;;;5012607;28;19993;-68
2023/10/24 09:48:56;;;;;;;;;;;;;;;;;;5012052;28;19998;-69
2023/10/24 09:51:22;;;;;;;;;;;;;;;;;;5012458;28;20451;-69
2023/10/24 09:53:48;;;;;;;;;;;;;;;;;;5012713;28;20014;-69
2023/10/24 09:56:13;;;;;;;;;;;;;;;;;;5011020;28;20040;-69
2023/10/24 09:58:41;;;;;;;;;;;;;;;;;;5010651;28;20030;-69
2023/10/24 10:01:07;;;;;;;;;;;;;;;;;;5010366;28;19994;-69
2023/10/24 10:03:33;;;;;;;;;;;;;;;;;;5010393;28;20429;-69
2023/10/24 10:05:59;;;;;;;;;;;;;;;;;;5010354;28;19997;-70
2023/10/24 10:08:26;;;;;;;;;;;;;;;;;;5010602;28;20040;-69
2023/10/24 10:10:52;;;;;;;;;;;;;;;;;;5010961;28;19990;-69
2023/10/24 10:13:18;;;;;;;;;;;;;;;;;;5011850;28;20018;-70
2023/10/24 10:15:44;;;;;;;;;;;;;;;;;;5010968;28;20534;-69
2023/10/24 10:18:11;;;;;;;;;;;;;;;;;;5011877;28;20077;-69
2023/10/24 10:20:37;;;;;;;;;;;;;;;;;;5011757;28;19994;-69
2023/10/24 10:23:03;;;;;;;;;;;;;;;;;;5010528;28;20450;-68
2023/10/24 10:25:28;;;;;;;;;;;;;;;;;;5010412;28;20048;-69
2023/10/24 10:27:54;;;;;;;;;;;;;;;;;;5011956;28;19998;-69
2023/10/24 10:30:20;;;;;;;;;;;;;;;;;;5011776;28;19990;-68
2023/10/24 10:32:46;;;;;;;;;;;;;;;;;;4993855;28;20027;-69
2023/10/24 10:35:12;;;;;;;;;;;;;;;;;;5010237;28;19994;-71
2023/10/24 10:37:38;;;;;;;;;;;;;;;;;;5011691;28;19987;-68
2023/10/24 10:40:04;;;;;;;;;;;;;;;;;;5011689;28;20081;-68
2023/10/24 10:42:30;;;;;;;;;;;;;;;;;;5011689;28;20473;-69
2023/10/24 10:44:56;;;;;;;;;;;;;;;;;;5011736;28;20061;-69
2023/10/24 10:47:24;;;;;;;;;;;;;;;;;;5010936;28;19995;-69
2023/10/24 10:49:50;;;;;;;;;;;;;;;;;;4994003;28;19989;-69
2023/10/24 10:52:17;;;;;;;;;;;;;;;;;;5011524;28;19993;-69
2023/10/24 10:54:42;;;;;;;;;;;;;;;;;;5012021;28;20493;-69
2023/10/24 10:57:08;;;;;;;;;;;;;;;;;;5011520;28;19987;-68
2023/10/24 10:59:34;;;;;;;;;;;;;;;;;;5011690;28;20259;-69
2023/10/24 11:02:00;;;;;;;;;;;;;;;;;;5015446;28;20506;-69
2023/10/24 11:04:27;;;;;;;;;;;;;;;;;;5014731;28;20005;-69
2023/10/24 11:06:53;;;;;;;;;;;;;;;;;;5013032;28;19998;-68
2023/10/24 11:09:20;;;;;;;;;;;;;;;;;;5015027;28;20052;-69
2023/10/24 11:11:46;;;;;;;;;;;;;;;;;;5015436;28;19986;-69
2023/10/24 11:14:12;;;;;;;;;;;;;;;;;;5015218;28;20085;-70
2023/10/24 11:16:37;;;;;;;;;;;;;;;;;;5015147;28;20038;-69
2023/10/24 11:19:05;;;;;;;;;;;;;;;;;;5014540;28;19997;-70
2023/10/24 11:21:32;;;;;;;;;;;;;;;;;;5015009;28;19990;-69
2023/10/24 11:23:59;;;;;;;;;;;;;;;;;;5015087;28;20431;-69
2023/10/24 11:26:25;;;;;;;;;;;;;;;;;;4997597;28;20430;-71
2023/10/24 11:28:51;;;;;;;;;;;;;;;;;;4997273;28;19990;-71
2023/10/24 11:31:17;;;;;;;;;;;;;;;;;;4997521;28;19998;-71
2023/10/24 11:33:44;;;;;;;;;;;;;;;;;;4996937;28;20101;-69
2023/10/24 11:36:10;;;;;;;;;;;;;;;;;;5014026;28;20026;-69
2023/10/24 11:38:36;;;;;;;;;;;;;;;;;;5014823;28;20029;-70
2023/10/24 11:41:02;;;;;;;;;;;;;;;;;;5014766;28;19991;-68
2023/10/24 11:43:29;;;;;;;;;;;;;;;;;;5014811;28;19987;-69
2023/10/24 11:45:55;;;;;;;;;;;;;;;;;;5014635;28;20327;-69
2023/10/24 11:48:21;;;;;;;;;;;;;;;;;;5014809;28;20081;-70
2023/10/24 11:50:47;;;;;;;;;;;;;;;;;;5014642;28;20005;-69
2023/10/24 11:53:13;;;;;;;;;;;;;;;;;;5013792;28;20071;-70
2023/10/24 11:55:39;;;;;;;;;;;;;;;;;;5014464;28;20089;-68
2023/10/24 11:58:05;;;;;;;;;;;;;;;;;;5014549;28;19986;-67
2023/10/24 12:00:31;;;;;;;;;;;;;;;;;;5014548;28;19995;-69
2023/10/24 12:02:57;;;;;;;;;;;;;;;;;;5014344;28;19987;-67
2023/10/24 12:05:23;;;;;;;;;;;;;;;;;;5014239;28;20512;-68
2023/10/24 12:07:49;;;;;;;;;;;;;;;;;;5014396;28;20041;-69
2023/10/24 12:10:15;;;;;;;;;;;;;;;;;;5013568;28;20641;-67
2023/10/24 12:12:41;;;;;;;;;;;;;;;;;;5013689;28;20017;-67
2023/10/24 12:15:07;;;;;;;;;;;;;;;;;;5014443;28;19990;-68
2023/10/24 12:17:33;;;;;;;;;;;;;;;;;;5013519;28;19995;-69
2023/10/24 12:20:00;;;;;;;;;;;;;;;;;;5014120;28;19987;-69
2023/10/24 12:22:26;;;;;;;;;;;;;;;;;;5014098;28;20027;-68
2023/10/24 12:24:52;;;;;;;;;;;;;;;;;;5014359;28;19990;-70
2023/10/24 12:27:18;;;;;;;;;;;;;;;;;;4997818;28;19999;-68
2023/10/24 12:29:44;;;;;;;;;;;;;;;;;;4994363;28;19990;-73
2023/10/24 12:32:09;;;;;;;;;;;;;;;;;;5010652;28;20088;-72
2023/10/24 12:34:35;;;;;;;;;;;;;;;;;;5013835;28;20419;-72
2023/10/24 12:37:02;;;;;;;;;;;;;;;;;;5012812;28;19994;-71
2023/10/24 12:39:28;;;;;;;;;;;;;;;;;;5013594;28;19986;-71
2023/10/24 12:41:53;;;;;;;;;;;;;;;;;;5012244;28;19994;-71
2023/10/24 12:44:19;;;;;;;;;;;;;;;;;;5013605;28;20100;-71
2023/10/24 12:46:45;;;;;;;;;;;;;;;;;;5013279;28;19994;-71
2023/10/24 12:49:11;;;;;;;;;;;;;;;;;;5013497;28;19990;-71
2023/10/24 12:51:37;;;;;;;;;;;;;;;;;;5012163;28;20012;-72
2023/10/24 12:54:03;;;;;;;;;;;;;;;;;;5012951;28;20024;-73
2023/10/24 12:56:29;;;;;;;;;;;;;;;;;;5013218;28;20075;-71
2023/10/24 12:58:55;;;;;;;;;;;;;;;;;;5013276;28;20036;-71
2023/10/24 13:01:22;;;;;;;;;;;;;;;;;;5013050;28;19998;-72
2023/10/24 13:03:48;;;;;;;;;;;;;;;;;;5013097;28;19997;-70
2023/10/24 13:06:14;;;;;;;;;;;;;;;;;;5013172;28;20085;-70
2023/10/24 13:08:40;;;;;;;;;;;;;;;;;;5012368;28;20013;-70
2023/10/24 13:11:06;;;;;;;;;;;;;;;;;;5013085;28;20398;-74
2023/10/24 13:13:32;;;;;;;;;;;;;;;;;;5012235;28;20117;-74
2023/10/24 13:15:58;;;;;;;;;;;;;;;;;;5013000;28;20035;-76
2023/10/24 13:18:24;;;;;;;;;;;;;;;;;;5013248;28;19995;-80
2023/10/24 13:20:50;;;;;;;;;;;;;;;;;;5013524;28;20061;-78
2023/10/24 13:23:16;;;;;;;;;;;;;;;;;;5013438;28;20069;-77
2023/10/24 13:25:41;;;;;;;;;;;;;;;;;;5013846;28;20078;-76
2023/10/24 13:28:07;;;;;;;;;;;;;;;;;;5013046;28;19997;-75
2023/10/24 13:30:33;;;;;;;;;;;;;;;;;;5012252;28;20009;-75
2023/10/24 13:32:59;;;;;;;;;;;;;;;;;;5022381;28;20029;-73
2023/10/24 13:35:25;;;;;;;;;;;;;;;;;;5032313;28;19986;-74
2023/10/24 13:37:51;;;;;;;;;;;;;;;;;;5032647;28;20028;-74
2023/10/24 13:40:18;;;;;;;;;;;;;;;;;;5032570;28;20064;-74
2023/10/24 13:42:44;;;;;;;;;;;;;;;;;;5032378;28;19994;-73
2023/10/24 13:45:11;;;;;;;;;;;;;;;;;;5028530;28;20607;-73
2023/10/24 13:47:37;;;;;;;;;;;;;;;;;;5012622;28;20017;-73
2023/10/24 13:50:03;;;;;;;;;;;;;;;;;;5012383;28;20359;-72
2023/10/24 13:52:30;;;;;;;;;;;;;;;;;;5012364;28;20112;-71
2023/10/24 13:54:56;;;;;;;;;;;;;;;;;;5012386;28;19994;-71
2023/10/24 13:57:22;;;;;;;;;;;;;;;;;;5012505;28;19994;-71
2023/10/24 13:59:48;;;;;;;;;;;;;;;;;;5012369;28;20032;-72
2023/10/24 14:02:14;;;;;;;;;;;;;;;;;;5011398;28;20037;-70
2023/10/24 14:04:40;;;;;;;;;;;;;;;;;;5012170;28;19990;-69
2023/10/24 14:07:06;;;;;;;;;;;;;;;;;;5009286;28;20363;-72
2023/10/24 14:09:32;;;;;;;;;;;;;;;;;;5008291;28;19994;-71
2023/10/24 14:11:58;;;;;;;;;;;;;;;;;;5011934;28;19993;-72
2023/10/24 14:14:26;;;;;;;;;;;;;;;;;;5011329;28;20018;-76
2023/10/24 14:16:53;;;;;;;;;;;;;;;;;;5011470;28;19998;-76
2023/10/24 14:19:19;;;;;;;;;;;;;;;;;;4992526;28;19991;-73
2023/10/24 14:21:45;;;;;;;;;;;;;;;;;;4992608;28;20065;-73
2023/10/24 14:24:11;;;;;;;;;;;;;;;;;;4992476;28;20441;-74
2023/10/24 14:26:37;;;;;;;;;;;;;;;;;;5010838;28;19994;-75
2023/10/24 14:29:03;;;;;;;;;;;;;;;;;;5011104;28;20041;-73
2023/10/24 14:31:29;;;;;;;;;;;;;;;;;;5005351;28;19994;-75
2023/10/24 14:33:56;;;;;;;;;;;;;;;;;;5000885;28;20025;-75
2023/10/24 14:36:23;;;;;;;;;;;;;;;;;;5011012;28;20496;-74
2023/10/24 14:38:48;;;;;;;;;;;;;;;;;;5010235;28;20081;-76
2023/10/24 14:41:14;;;;;;;;;;;;;;;;;;5010577;28;20025;-74
2023/10/24 14:43:40;;;;;;;;;;;;;;;;;;5011592;28;20086;-75
2023/10/24 14:46:06;;;;;;;;;;;;;;;;;;5011547;28;20036;-74
2023/10/24 14:48:32;;;;;;;;;;;;;;;;;;5010797;28;20501;-75
2023/10/24 14:50:58;;;;;;;;;;;;;;;;;;5010537;28;20001;-71
2023/10/24 14:53:24;;;;;;;;;;;;;;;;;;5011373;28;20072;-70
2023/10/24 14:55:50;;;;;;;;;;;;;;;;;;5011163;28;20209;-72
2023/10/24 14:58:18;;;;;;;;;;;;;;;;;;5011042;28;19994;-73
2023/10/24 15:00:45;;;;;;;;;;;;;;;;;;5008915;28;20048;-71
2023/10/24 15:03:11;;;;;;;;;;;;;;;;;;5011412;28;20490;-74
2023/10/24 15:05:37;;;;;;;;;;;;;;;;;;5011628;28;19987;-76
2023/10/24 15:08:03;;;;;;;;;;;;;;;;;;5011444;28;20037;-73
2023/10/24 15:10:29;;;;;;;;;;;;;;;;;;5010703;28;19995;-73
2023/10/24 15:12:56;;;;;;;;;;;;;;;;;;4991154;28;20017;-74
2023/10/24 15:15:23;;;;;;;;;;;;;;;;;;4991040;28;20193;-73
2023/10/24 15:17:49;;;;;;;;;;;;;;;;;;5010629;28;20000;-73
2023/10/24 15:20:15;;;;;;;;;;;;;;;;;;5010344;28;20442;-72
2023/10/24 15:22:41;;;;;;;;;;;;;;;;;;5008978;28;20020;-73
2023/10/24 15:25:07;;;;;;;;;;;;;;;;;;5011110;28;19990;-72
2023/10/24 15:27:33;;;;;;;;;;;;;;;;;;5007888;28;19990;-72
2023/10/24 15:29:59;;;;;;;;;;;;;;;;;;5010465;28;20029;-75
2023/10/24 15:32:26;;;;;;;;;;;;;;;;;;5011209;28;20098;-70
2023/10/24 15:34:52;;;;;;;;;;;;;;;;;;5009501;28;20014;-71
2023/10/24 15:37:19;;;;;;;;;;;;;;;;;;5011060;28;19986;-71
2023/10/24 15:39:46;;;;;;;;;;;;;;;;;;5011304;28;20033;-72
2023/10/24 15:42:12;;;;;;;;;;;;;;;;;;5008765;28;19995;-72
2023/10/24 15:44:38;;;;;;;;;;;;;;;;;;5008960;28;20005;-72
2023/10/24 15:47:04;;;;;;;;;;;;;;;;;;5011733;28;20073;-72
2023/10/24 15:49:30;;;;;;;;;;;;;;;;;;5014838;28;20093;-71
2023/10/24 15:51:58;;;;;;;;;;;;;;;;;;5014889;28;20073;-71
2023/10/24 15:54:24;;;;;;;;;;;;;;;;;;5002486;28;20023;-72
2023/10/24 15:56:50;;;;;;;;;;;;;;;;;;5010907;28;19994;-74
2023/10/24 15:59:15;;;;;;;;;;;;;;;;;;5012034;28;20089;-71
2023/10/24 16:01:43;;;;;;;;;;;;;;;;;;5014703;28;19986;-73
2023/10/24 16:04:09;;;;;;;;;;;;;;;;;;5014634;28;19997;-71
2023/10/24 16:06:35;;;;;;;;;;;;;;;;;;5013196;28;19998;-72
2023/10/24 16:09:01;;;;;;;;;;;;;;;;;;5001994;28;19998;-81
2023/10/24 16:11:27;;;;;;;;;;;;;;;;;;5005695;28;19997;-73
2023/10/24 16:13:53;;;;;;;;;;;;;;;;;;5013904;28;20060;-71
2023/10/24 16:16:19;;;;;;;;;;;;;;;;;;5013965;28;20042;-73
2023/10/24 16:18:45;;;;;;;;;;;;;;;;;;5014015;28;20053;-72
2023/10/24 16:21:11;;;;;;;;;;;;;;;;;;5012498;28;19990;-73
2023/10/24 16:23:37;;;;;;;;;;;;;;;;;;5013612;28;20417;-74
2023/10/24 16:26:03;;;;;;;;;;;;;;;;;;5014044;28;20087;-72
2023/10/24 16:28:29;;;;;;;;;;;;;;;;;;5004182;28;20081;-72
2023/10/24 16:30:55;;;;;;;;;;;;;;;;;;5012599;28;20001;-74
2023/10/24 16:33:21;;;;;;;;;;;;;;;;;;5013740;28;20022;-74
2023/10/24 16:35:47;;;;;;;;;;;;;;;;;;5013794;28;20374;-75
2023/10/24 16:38:13;;;;;;;;;;;;;;;;;;5012823;28;20020;-78